sensor_id;sensor_type;location;lat;lon;timestamp;P1;durP1;ratioP1;P2;durP2;ratioP2
6177;SDS011;3122;48.208;11.174;2022-07-31T00:01:17;8.70;;;7.90;;
6177;SDS011;3122;48.208;11.174;2022-07-31T00:06:17;7.90;;;7.20;;
6177;SDS011;3122;48.208;11.174;2022-07-31T00:11:18;8.90;;;8.00;;
6177;SDS011;3122;48.208;11.174;2022-07-31T00:16:19;8.40;;;7.70;;
6177;SDS011;3122;48.208;11.174;2022-07-31T00:21:19;7.83;;;7.13;;
6177;SDS011;3122;48.208;11.174;2022-07-31T00:26:20;8.20;;;7.50;;
6177;SDS011;3122;48.208;11.174;2022-07-31T00:31:21;7.57;;;6.87;;
6177;SDS011;3122;48.208;11.174;2022-07-31T00:36:21;8.17;;;7.37;;
6177;SDS011;3122;48.208;11.174;2022-07-31T00:41:22;7.77;;;7.07;;
6177;SDS011;3122;48.208;11.174;2022-07-31T00:46:22;9.67;;;6.77;;
6177;SDS011;3122;48.208;11.174;2022-07-31T00:51:23;7.10;;;6.43;;
6177;SDS011;3122;48.208;11.174;2022-07-31T00:56:24;7.50;;;6.80;;
6177;SDS011;3122;48.208;11.174;2022-07-31T01:01:24;10.20;;;7.17;;
6177;SDS011;3122;48.208;11.174;2022-07-31T01:06:26;7.20;;;6.60;;
6177;SDS011;3122;48.208;11.174;2022-07-31T01:16:42;7.30;;;6.70;;
6177;SDS011;3122;48.208;11.174;2022-07-31T01:21:53;7.70;;;6.83;;
6177;SDS011;3122;48.208;11.174;2022-07-31T01:27:11;7.87;;;7.27;;
6177;SDS011;3122;48.208;11.174;2022-07-31T01:32:24;8.23;;;7.30;;
6177;SDS011;3122;48.208;11.174;2022-07-31T01:37:39;7.40;;;6.80;;
6177;SDS011;3122;48.208;11.174;2022-07-31T01:42:46;9.10;;;8.30;;
6177;SDS011;3122;48.208;11.174;2022-07-31T01:47:59;8.30;;;7.60;;
6177;SDS011;3122;48.208;11.174;2022-07-31T01:53:00;7.87;;;7.00;;
6177;SDS011;3122;48.208;11.174;2022-07-31T01:58:01;7.47;;;6.63;;
6177;SDS011;3122;48.208;11.174;2022-07-31T02:03:04;7.03;;;6.47;;
6177;SDS011;3122;48.208;11.174;2022-07-31T02:08:08;6.70;;;6.10;;
6177;SDS011;3122;48.208;11.174;2022-07-31T02:13:10;7.70;;;7.00;;
6177;SDS011;3122;48.208;11.174;2022-07-31T02:18:13;7.30;;;6.60;;
6177;SDS011;3122;48.208;11.174;2022-07-31T02:23:14;7.60;;;6.67;;
6177;SDS011;3122;48.208;11.174;2022-07-31T02:28:16;6.53;;;5.93;;
6177;SDS011;3122;48.208;11.174;2022-07-31T02:33:20;7.40;;;6.80;;
6177;SDS011;3122;48.208;11.174;2022-07-31T02:38:23;6.87;;;6.27;;
6177;SDS011;3122;48.208;11.174;2022-07-31T02:43:26;7.10;;;6.50;;
6177;SDS011;3122;48.208;11.174;2022-07-31T02:48:27;6.70;;;6.00;;
6177;SDS011;3122;48.208;11.174;2022-07-31T02:53:28;7.73;;;6.97;;
6177;SDS011;3122;48.208;11.174;2022-07-31T02:58:30;8.63;;;7.23;;
6177;SDS011;3122;48.208;11.174;2022-07-31T03:03:30;6.70;;;6.20;;
6177;SDS011;3122;48.208;11.174;2022-07-31T03:08:31;7.03;;;6.03;;
6177;SDS011;3122;48.208;11.174;2022-07-31T03:13:32;7.43;;;6.50;;
6177;SDS011;3122;48.208;11.174;2022-07-31T03:18:34;6.53;;;5.70;;
6177;SDS011;3122;48.208;11.174;2022-07-31T03:23:36;8.50;;;7.43;;
6177;SDS011;3122;48.208;11.174;2022-07-31T03:28:37;7.17;;;6.50;;
6177;SDS011;3122;48.208;11.174;2022-07-31T03:33:38;12.13;;;6.17;;
6177;SDS011;3122;48.208;11.174;2022-07-31T03:38:38;6.20;;;5.70;;
6177;SDS011;3122;48.208;11.174;2022-07-31T03:43:39;6.47;;;5.97;;
6177;SDS011;3122;48.208;11.174;2022-07-31T03:48:41;6.13;;;5.53;;
6177;SDS011;3122;48.208;11.174;2022-07-31T03:53:42;6.30;;;5.80;;
6177;SDS011;3122;48.208;11.174;2022-07-31T03:58:45;6.50;;;6.00;;
6177;SDS011;3122;48.208;11.174;2022-07-31T04:03:45;5.90;;;5.40;;
6177;SDS011;3122;48.208;11.174;2022-07-31T04:08:46;7.00;;;5.70;;
6177;SDS011;3122;48.208;11.174;2022-07-31T04:13:47;9.27;;;7.10;;
6177;SDS011;3122;48.208;11.174;2022-07-31T04:18:48;6.80;;;6.10;;
6177;SDS011;3122;48.208;11.174;2022-07-31T04:23:48;7.20;;;6.20;;
6177;SDS011;3122;48.208;11.174;2022-07-31T04:28:49;7.87;;;7.17;;
6177;SDS011;3122;48.208;11.174;2022-07-31T04:33:50;7.33;;;6.63;;
6177;SDS011;3122;48.208;11.174;2022-07-31T04:38:50;6.93;;;6.30;;
6177;SDS011;3122;48.208;11.174;2022-07-31T04:43:51;8.43;;;6.67;;
6177;SDS011;3122;48.208;11.174;2022-07-31T04:48:51;7.33;;;6.57;;
6177;SDS011;3122;48.208;11.174;2022-07-31T04:53:52;5.97;;;5.50;;
6177;SDS011;3122;48.208;11.174;2022-07-31T04:58:53;5.60;;;5.10;;
6177;SDS011;3122;48.208;11.174;2022-07-31T05:03:53;6.07;;;5.53;;
6177;SDS011;3122;48.208;11.174;2022-07-31T05:08:54;5.83;;;5.33;;
6177;SDS011;3122;48.208;11.174;2022-07-31T05:13:55;7.67;;;5.30;;
6177;SDS011;3122;48.208;11.174;2022-07-31T05:18:57;10.00;;;5.77;;
6177;SDS011;3122;48.208;11.174;2022-07-31T05:23:59;5.67;;;5.27;;
6177;SDS011;3122;48.208;11.174;2022-07-31T05:29:04;5.93;;;5.43;;
6177;SDS011;3122;48.208;11.174;2022-07-31T05:34:05;8.93;;;5.57;;
6177;SDS011;3122;48.208;11.174;2022-07-31T05:39:05;6.17;;;5.50;;
6177;SDS011;3122;48.208;11.174;2022-07-31T05:44:06;6.43;;;5.30;;
6177;SDS011;3122;48.208;11.174;2022-07-31T05:49:07;6.30;;;5.70;;
6177;SDS011;3122;48.208;11.174;2022-07-31T05:54:07;6.50;;;5.90;;
6177;SDS011;3122;48.208;11.174;2022-07-31T05:59:08;6.10;;;5.60;;
6177;SDS011;3122;48.208;11.174;2022-07-31T06:04:08;5.90;;;5.03;;
6177;SDS011;3122;48.208;11.174;2022-07-31T06:09:09;7.47;;;6.03;;
6177;SDS011;3122;48.208;11.174;2022-07-31T06:14:10;6.00;;;5.50;;
6177;SDS011;3122;48.208;11.174;2022-07-31T06:19:10;6.83;;;5.27;;
6177;SDS011;3122;48.208;11.174;2022-07-31T06:24:11;7.70;;;5.90;;
6177;SDS011;3122;48.208;11.174;2022-07-31T06:29:11;5.87;;;5.37;;
6177;SDS011;3122;48.208;11.174;2022-07-31T06:34:12;5.83;;;5.23;;
6177;SDS011;3122;48.208;11.174;2022-07-31T06:39:13;5.67;;;5.17;;
6177;SDS011;3122;48.208;11.174;2022-07-31T06:44:13;6.10;;;5.20;;
6177;SDS011;3122;48.208;11.174;2022-07-31T06:49:15;5.60;;;5.10;;
6177;SDS011;3122;48.208;11.174;2022-07-31T06:54:15;5.30;;;4.80;;
6177;SDS011;3122;48.208;11.174;2022-07-31T06:59:16;5.60;;;5.10;;
6177;SDS011;3122;48.208;11.174;2022-07-31T07:04:16;5.63;;;5.13;;
6177;SDS011;3122;48.208;11.174;2022-07-31T07:09:18;5.80;;;5.30;;
6177;SDS011;3122;48.208;11.174;2022-07-31T07:14:18;5.10;;;4.70;;
6177;SDS011;3122;48.208;11.174;2022-07-31T07:19:19;5.30;;;4.87;;
6177;SDS011;3122;48.208;11.174;2022-07-31T07:24:19;7.37;;;5.83;;
6177;SDS011;3122;48.208;11.174;2022-07-31T07:29:20;5.80;;;5.30;;
6177;SDS011;3122;48.208;11.174;2022-07-31T07:34:20;5.67;;;5.07;;
6177;SDS011;3122;48.208;11.174;2022-07-31T07:39:21;5.80;;;5.20;;
6177;SDS011;3122;48.208;11.174;2022-07-31T07:44:22;5.97;;;4.87;;
6177;SDS011;3122;48.208;11.174;2022-07-31T07:49:22;4.97;;;4.53;;
6177;SDS011;3122;48.208;11.174;2022-07-31T07:54:23;5.83;;;5.20;;
6177;SDS011;3122;48.208;11.174;2022-07-31T07:59:23;6.67;;;5.83;;
6177;SDS011;3122;48.208;11.174;2022-07-31T08:04:24;6.10;;;5.50;;
6177;SDS011;3122;48.208;11.174;2022-07-31T08:09:25;6.20;;;5.73;;
6177;SDS011;3122;48.208;11.174;2022-07-31T08:14:25;5.70;;;5.30;;
6177;SDS011;3122;48.208;11.174;2022-07-31T08:19:26;6.20;;;5.60;;
6177;SDS011;3122;48.208;11.174;2022-07-31T08:24:26;5.93;;;5.40;;
6177;SDS011;3122;48.208;11.174;2022-07-31T08:29:27;6.47;;;5.77;;
6177;SDS011;3122;48.208;11.174;2022-07-31T08:34:28;7.53;;;5.40;;
6177;SDS011;3122;48.208;11.174;2022-07-31T08:39:28;5.30;;;4.80;;
6177;SDS011;3122;48.208;11.174;2022-07-31T08:44:29;6.10;;;5.60;;
6177;SDS011;3122;48.208;11.174;2022-07-31T08:49:29;5.90;;;5.30;;
6177;SDS011;3122;48.208;11.174;2022-07-31T08:54:32;4.97;;;4.60;;
6177;SDS011;3122;48.208;11.174;2022-07-31T08:59:35;5.27;;;4.70;;
6177;SDS011;3122;48.208;11.174;2022-07-31T09:04:36;5.10;;;4.70;;
6177;SDS011;3122;48.208;11.174;2022-07-31T09:09:40;4.87;;;4.47;;
6177;SDS011;3122;48.208;11.174;2022-07-31T09:14:46;7.40;;;4.47;;
6177;SDS011;3122;48.208;11.174;2022-07-31T09:19:48;5.97;;;4.17;;
6177;SDS011;3122;48.208;11.174;2022-07-31T09:24:50;4.00;;;3.70;;
6177;SDS011;3122;48.208;11.174;2022-07-31T09:29:50;3.77;;;3.47;;
6177;SDS011;3122;48.208;11.174;2022-07-31T09:35:04;5.87;;;4.27;;
6177;SDS011;3122;48.208;11.174;2022-07-31T09:40:06;4.17;;;3.87;;
6177;SDS011;3122;48.208;11.174;2022-07-31T09:45:18;5.20;;;4.80;;
6177;SDS011;3122;48.208;11.174;2022-07-31T09:50:22;4.60;;;4.30;;
6177;SDS011;3122;48.208;11.174;2022-07-31T09:55:23;3.97;;;3.67;;
6177;SDS011;3122;48.208;11.174;2022-07-31T10:00:24;4.97;;;3.50;;
6177;SDS011;3122;48.208;11.174;2022-07-31T10:05:26;3.63;;;3.33;;
6177;SDS011;3122;48.208;11.174;2022-07-31T10:10:27;4.07;;;3.77;;
6177;SDS011;3122;48.208;11.174;2022-07-31T10:15:29;4.20;;;3.80;;
6177;SDS011;3122;48.208;11.174;2022-07-31T10:20:34;5.30;;;3.70;;
6177;SDS011;3122;48.208;11.174;2022-07-31T10:25:37;9.87;;;4.13;;
6177;SDS011;3122;48.208;11.174;2022-07-31T10:30:44;6.90;;;4.03;;
6177;SDS011;3122;48.208;11.174;2022-07-31T10:35:57;4.00;;;3.70;;
6177;SDS011;3122;48.208;11.174;2022-07-31T10:46:29;4.10;;;3.73;;
6177;SDS011;3122;48.208;11.174;2022-07-31T10:51:30;4.90;;;3.80;;
6177;SDS011;3122;48.208;11.174;2022-07-31T10:56:40;3.67;;;3.37;;
6177;SDS011;3122;48.208;11.174;2022-07-31T11:01:45;3.33;;;3.03;;
6177;SDS011;3122;48.208;11.174;2022-07-31T11:06:47;4.10;;;3.70;;
6177;SDS011;3122;48.208;11.174;2022-07-31T11:11:49;3.93;;;3.53;;
6177;SDS011;3122;48.208;11.174;2022-07-31T11:16:50;4.00;;;3.40;;
6177;SDS011;3122;48.208;11.174;2022-07-31T11:21:52;3.70;;;3.40;;
6177;SDS011;3122;48.208;11.174;2022-07-31T11:26:56;5.63;;;4.10;;
6177;SDS011;3122;48.208;11.174;2022-07-31T11:31:58;4.67;;;3.70;;
6177;SDS011;3122;48.208;11.174;2022-07-31T11:37:01;4.40;;;4.00;;
6177;SDS011;3122;48.208;11.174;2022-07-31T11:42:02;4.40;;;4.10;;
6177;SDS011;3122;48.208;11.174;2022-07-31T11:47:03;4.73;;;4.00;;
6177;SDS011;3122;48.208;11.174;2022-07-31T11:52:07;4.33;;;3.40;;
6177;SDS011;3122;48.208;11.174;2022-07-31T11:57:12;3.03;;;2.73;;
6177;SDS011;3122;48.208;11.174;2022-07-31T12:02:13;4.93;;;2.90;;
6177;SDS011;3122;48.208;11.174;2022-07-31T12:07:14;3.43;;;3.10;;
6177;SDS011;3122;48.208;11.174;2022-07-31T12:12:15;4.23;;;3.23;;
6177;SDS011;3122;48.208;11.174;2022-07-31T12:17:18;3.73;;;3.43;;
6177;SDS011;3122;48.208;11.174;2022-07-31T12:22:20;6.57;;;3.07;;
6177;SDS011;3122;48.208;11.174;2022-07-31T12:27:21;3.90;;;3.60;;
6177;SDS011;3122;48.208;11.174;2022-07-31T12:32:25;4.33;;;4.00;;
6177;SDS011;3122;48.208;11.174;2022-07-31T12:37:28;4.20;;;3.40;;
6177;SDS011;3122;48.208;11.174;2022-07-31T12:42:29;4.00;;;3.60;;
6177;SDS011;3122;48.208;11.174;2022-07-31T12:47:32;4.13;;;3.83;;
6177;SDS011;3122;48.208;11.174;2022-07-31T12:52:36;4.37;;;3.67;;
6177;SDS011;3122;48.208;11.174;2022-07-31T12:57:36;4.10;;;3.70;;
6177;SDS011;3122;48.208;11.174;2022-07-31T13:02:37;4.50;;;3.80;;
6177;SDS011;3122;48.208;11.174;2022-07-31T13:07:39;4.50;;;3.43;;
6177;SDS011;3122;48.208;11.174;2022-07-31T13:12:39;7.07;;;3.30;;
6177;SDS011;3122;48.208;11.174;2022-07-31T13:17:40;4.40;;;3.70;;
6177;SDS011;3122;48.208;11.174;2022-07-31T13:22:41;8.00;;;3.93;;
6177;SDS011;3122;48.208;11.174;2022-07-31T13:27:42;4.17;;;3.87;;
6177;SDS011;3122;48.208;11.174;2022-07-31T13:32:42;3.63;;;3.33;;
6177;SDS011;3122;48.208;11.174;2022-07-31T13:37:43;3.83;;;3.53;;
6177;SDS011;3122;48.208;11.174;2022-07-31T13:42:45;3.50;;;3.13;;
6177;SDS011;3122;48.208;11.174;2022-07-31T13:47:45;3.10;;;2.90;;
6177;SDS011;3122;48.208;11.174;2022-07-31T13:52:46;4.17;;;2.83;;
6177;SDS011;3122;48.208;11.174;2022-07-31T13:57:46;3.90;;;2.63;;
6177;SDS011;3122;48.208;11.174;2022-07-31T14:02:47;2.90;;;2.70;;
6177;SDS011;3122;48.208;11.174;2022-07-31T14:07:48;2.90;;;2.70;;
6177;SDS011;3122;48.208;11.174;2022-07-31T14:12:49;7.60;;;3.00;;
6177;SDS011;3122;48.208;11.174;2022-07-31T14:17:50;3.33;;;3.03;;
6177;SDS011;3122;48.208;11.174;2022-07-31T14:22:50;4.00;;;3.00;;
6177;SDS011;3122;48.208;11.174;2022-07-31T14:27:51;3.53;;;3.23;;
6177;SDS011;3122;48.208;11.174;2022-07-31T14:32:53;5.87;;;3.33;;
6177;SDS011;3122;48.208;11.174;2022-07-31T14:37:54;3.57;;;3.27;;
6177;SDS011;3122;48.208;11.174;2022-07-31T14:42:56;3.93;;;3.53;;
6177;SDS011;3122;48.208;11.174;2022-07-31T14:47:57;5.37;;;3.30;;
6177;SDS011;3122;48.208;11.174;2022-07-31T14:52:57;3.60;;;3.40;;
6177;SDS011;3122;48.208;11.174;2022-07-31T14:57:59;4.10;;;3.27;;
6177;SDS011;3122;48.208;11.174;2022-07-31T15:03:00;3.23;;;3.03;;
6177;SDS011;3122;48.208;11.174;2022-07-31T15:08:01;3.37;;;3.17;;
6177;SDS011;3122;48.208;11.174;2022-07-31T15:13:01;3.00;;;2.80;;
6177;SDS011;3122;48.208;11.174;2022-07-31T15:18:02;3.03;;;2.83;;
6177;SDS011;3122;48.208;11.174;2022-07-31T15:23:03;3.03;;;2.83;;
6177;SDS011;3122;48.208;11.174;2022-07-31T15:28:03;2.97;;;2.77;;
6177;SDS011;3122;48.208;11.174;2022-07-31T15:33:04;3.40;;;3.10;;
6177;SDS011;3122;48.208;11.174;2022-07-31T15:38:05;2.87;;;2.67;;
6177;SDS011;3122;48.208;11.174;2022-07-31T15:43:05;3.30;;;2.80;;
6177;SDS011;3122;48.208;11.174;2022-07-31T15:48:06;2.93;;;2.63;;
6177;SDS011;3122;48.208;11.174;2022-07-31T15:53:07;3.00;;;2.50;;
6177;SDS011;3122;48.208;11.174;2022-07-31T15:58:08;3.20;;;2.63;;
6177;SDS011;3122;48.208;11.174;2022-07-31T16:03:09;2.50;;;2.30;;
6177;SDS011;3122;48.208;11.174;2022-07-31T16:08:10;3.10;;;2.90;;
6177;SDS011;3122;48.208;11.174;2022-07-31T16:13:10;3.00;;;2.80;;
6177;SDS011;3122;48.208;11.174;2022-07-31T16:18:11;3.63;;;2.90;;
6177;SDS011;3122;48.208;11.174;2022-07-31T16:23:11;3.07;;;2.87;;
6177;SDS011;3122;48.208;11.174;2022-07-31T16:28:12;3.50;;;2.80;;
6177;SDS011;3122;48.208;11.174;2022-07-31T16:33:13;3.53;;;2.53;;
6177;SDS011;3122;48.208;11.174;2022-07-31T16:38:14;3.10;;;2.80;;
6177;SDS011;3122;48.208;11.174;2022-07-31T16:43:15;4.07;;;3.50;;
6177;SDS011;3122;48.208;11.174;2022-07-31T16:48:15;4.33;;;3.13;;
6177;SDS011;3122;48.208;11.174;2022-07-31T16:53:16;3.43;;;2.77;;
6177;SDS011;3122;48.208;11.174;2022-07-31T16:58:17;2.87;;;2.60;;
6177;SDS011;3122;48.208;11.174;2022-07-31T17:03:17;4.03;;;2.83;;
6177;SDS011;3122;48.208;11.174;2022-07-31T17:08:21;3.43;;;2.40;;
6177;SDS011;3122;48.208;11.174;2022-07-31T17:13:22;3.27;;;2.93;;
6177;SDS011;3122;48.208;11.174;2022-07-31T17:18:22;4.03;;;2.90;;
6177;SDS011;3122;48.208;11.174;2022-07-31T17:23:24;3.53;;;3.23;;
6177;SDS011;3122;48.208;11.174;2022-07-31T17:28:24;3.83;;;3.30;;
6177;SDS011;3122;48.208;11.174;2022-07-31T17:33:25;3.37;;;3.07;;
6177;SDS011;3122;48.208;11.174;2022-07-31T17:38:25;3.63;;;3.00;;
6177;SDS011;3122;48.208;11.174;2022-07-31T17:43:26;3.67;;;3.20;;
6177;SDS011;3122;48.208;11.174;2022-07-31T17:48:27;3.37;;;3.07;;
6177;SDS011;3122;48.208;11.174;2022-07-31T17:53:27;6.57;;;3.50;;
6177;SDS011;3122;48.208;11.174;2022-07-31T17:58:28;3.50;;;3.20;;
6177;SDS011;3122;48.208;11.174;2022-07-31T18:03:30;3.47;;;3.17;;
6177;SDS011;3122;48.208;11.174;2022-07-31T18:08:30;5.10;;;3.17;;
6177;SDS011;3122;48.208;11.174;2022-07-31T18:13:31;4.53;;;4.13;;
6177;SDS011;3122;48.208;11.174;2022-07-31T18:18:34;3.90;;;3.43;;
6177;SDS011;3122;48.208;11.174;2022-07-31T18:23:36;5.20;;;3.53;;
6177;SDS011;3122;48.208;11.174;2022-07-31T18:28:37;5.43;;;3.60;;
6177;SDS011;3122;48.208;11.174;2022-07-31T18:33:37;3.33;;;3.10;;
6177;SDS011;3122;48.208;11.174;2022-07-31T18:38:41;4.07;;;3.77;;
6177;SDS011;3122;48.208;11.174;2022-07-31T18:43:42;6.10;;;3.60;;
6177;SDS011;3122;48.208;11.174;2022-07-31T18:48:42;3.73;;;3.40;;
6177;SDS011;3122;48.208;11.174;2022-07-31T18:53:43;3.50;;;3.30;;
6177;SDS011;3122;48.208;11.174;2022-07-31T18:58:44;3.70;;;3.40;;
6177;SDS011;3122;48.208;11.174;2022-07-31T19:03:44;3.70;;;3.40;;
6177;SDS011;3122;48.208;11.174;2022-07-31T19:08:45;4.40;;;4.00;;
6177;SDS011;3122;48.208;11.174;2022-07-31T19:13:48;4.63;;;4.00;;
6177;SDS011;3122;48.208;11.174;2022-07-31T19:18:49;4.00;;;3.30;;
6177;SDS011;3122;48.208;11.174;2022-07-31T19:23:49;5.57;;;3.73;;
6177;SDS011;3122;48.208;11.174;2022-07-31T19:28:50;3.90;;;3.60;;
6177;SDS011;3122;48.208;11.174;2022-07-31T19:33:50;4.23;;;3.60;;
6177;SDS011;3122;48.208;11.174;2022-07-31T19:38:51;4.73;;;4.20;;
6177;SDS011;3122;48.208;11.174;2022-07-31T19:43:52;5.20;;;4.70;;
6177;SDS011;3122;48.208;11.174;2022-07-31T19:48:52;4.47;;;4.07;;
6177;SDS011;3122;48.208;11.174;2022-07-31T19:53:53;5.03;;;4.63;;
6177;SDS011;3122;48.208;11.174;2022-07-31T19:58:53;4.50;;;4.10;;
6177;SDS011;3122;48.208;11.174;2022-07-31T20:03:54;4.60;;;3.97;;
6177;SDS011;3122;48.208;11.174;2022-07-31T20:08:56;5.60;;;4.00;;
6177;SDS011;3122;48.208;11.174;2022-07-31T20:13:57;4.90;;;4.30;;
6177;SDS011;3122;48.208;11.174;2022-07-31T20:18:58;4.33;;;3.93;;
6177;SDS011;3122;48.208;11.174;2022-07-31T20:23:59;5.50;;;3.90;;
6177;SDS011;3122;48.208;11.174;2022-07-31T20:29:01;4.13;;;3.73;;
6177;SDS011;3122;48.208;11.174;2022-07-31T20:34:03;7.63;;;4.10;;
6177;SDS011;3122;48.208;11.174;2022-07-31T20:39:03;5.20;;;3.87;;
6177;SDS011;3122;48.208;11.174;2022-07-31T20:44:04;5.37;;;4.07;;
6177;SDS011;3122;48.208;11.174;2022-07-31T20:49:05;6.47;;;4.80;;
6177;SDS011;3122;48.208;11.174;2022-07-31T20:54:05;6.00;;;4.30;;
6177;SDS011;3122;48.208;11.174;2022-07-31T20:59:06;4.90;;;4.50;;
6177;SDS011;3122;48.208;11.174;2022-07-31T21:04:07;4.40;;;4.00;;
6177;SDS011;3122;48.208;11.174;2022-07-31T21:09:08;4.20;;;3.90;;
6177;SDS011;3122;48.208;11.174;2022-07-31T21:14:09;6.67;;;5.30;;
6177;SDS011;3122;48.208;11.174;2022-07-31T21:19:09;5.20;;;4.77;;
6177;SDS011;3122;48.208;11.174;2022-07-31T21:24:10;5.20;;;4.70;;
6177;SDS011;3122;48.208;11.174;2022-07-31T21:29:11;6.00;;;4.63;;
6177;SDS011;3122;48.208;11.174;2022-07-31T21:34:12;4.50;;;4.10;;
6177;SDS011;3122;48.208;11.174;2022-07-31T21:39:13;4.57;;;4.27;;
6177;SDS011;3122;48.208;11.174;2022-07-31T21:44:14;5.67;;;4.50;;
6177;SDS011;3122;48.208;11.174;2022-07-31T21:49:14;4.20;;;3.90;;
6177;SDS011;3122;48.208;11.174;2022-07-31T21:54:19;4.53;;;4.13;;
6177;SDS011;3122;48.208;11.174;2022-07-31T21:59:19;4.40;;;4.10;;
6177;SDS011;3122;48.208;11.174;2022-07-31T22:04:20;4.70;;;4.30;;
6177;SDS011;3122;48.208;11.174;2022-07-31T22:09:20;4.60;;;4.20;;
6177;SDS011;3122;48.208;11.174;2022-07-31T22:14:23;4.40;;;4.10;;
6177;SDS011;3122;48.208;11.174;2022-07-31T22:19:24;6.53;;;5.30;;
6177;SDS011;3122;48.208;11.174;2022-07-31T22:24:25;5.57;;;5.07;;
6177;SDS011;3122;48.208;11.174;2022-07-31T22:29:25;4.40;;;4.10;;
6177;SDS011;3122;48.208;11.174;2022-07-31T22:34:28;4.83;;;4.50;;
6177;SDS011;3122;48.208;11.174;2022-07-31T22:39:28;5.93;;;4.70;;
6177;SDS011;3122;48.208;11.174;2022-07-31T22:44:30;5.27;;;4.77;;
6177;SDS011;3122;48.208;11.174;2022-07-31T22:49:31;5.27;;;4.87;;
6177;SDS011;3122;48.208;11.174;2022-07-31T22:54:33;4.77;;;4.37;;
6177;SDS011;3122;48.208;11.174;2022-07-31T22:59:33;6.33;;;4.40;;
6177;SDS011;3122;48.208;11.174;2022-07-31T23:04:34;5.50;;;4.17;;
6177;SDS011;3122;48.208;11.174;2022-07-31T23:09:35;4.67;;;4.27;;
6177;SDS011;3122;48.208;11.174;2022-07-31T23:14:36;4.60;;;4.20;;
6177;SDS011;3122;48.208;11.174;2022-07-31T23:19:36;5.00;;;4.37;;
6177;SDS011;3122;48.208;11.174;2022-07-31T23:24:37;4.20;;;3.90;;
6177;SDS011;3122;48.208;11.174;2022-07-31T23:29:37;5.33;;;4.40;;
6177;SDS011;3122;48.208;11.174;2022-07-31T23:34:38;5.13;;;4.20;;
6177;SDS011;3122;48.208;11.174;2022-07-31T23:39:38;6.63;;;4.00;;
6177;SDS011;3122;48.208;11.174;2022-07-31T23:44:39;4.77;;;4.23;;
6177;SDS011;3122;48.208;11.174;2022-07-31T23:49:40;4.63;;;4.33;;
6177;SDS011;3122;48.208;11.174;2022-07-31T23:54:40;11.53;;;4.67;;
6177;SDS011;3122;48.208;11.174;2022-07-31T23:59:41;5.20;;;4.40;;
